createdAt,value
2022-12-16T04:47:56.940Z,97.60
2022-12-16T04:50:42.759Z,97.40
2022-12-16T04:53:28.206Z,97.20
2022-12-16T04:56:13.967Z,96.90
2022-12-16T04:58:59.700Z,96.40
2022-12-16T05:01:45.343Z,96.40
2022-12-16T05:04:30.817Z,96.50
2022-12-16T05:07:16.492Z,96.70
2022-12-16T05:10:02.054Z,96.80
2022-12-16T05:12:47.477Z,97.10
2022-12-16T05:15:32.900Z,96.80
2022-12-16T05:18:25.838Z,97.00
2022-12-16T05:21:11.251Z,97.10
2022-12-16T05:23:56.604Z,97.00
2022-12-16T05:26:41.936Z,96.90
2022-12-16T05:29:27.333Z,96.90
2022-12-16T05:32:12.671Z,97.00
2022-12-16T05:34:58.041Z,96.40
2022-12-16T05:37:43.495Z,96.50
2022-12-16T05:40:29.798Z,96.30
2022-12-16T05:43:17.094Z,96.70
2022-12-16T05:46:02.789Z,96.60
2022-12-16T05:48:48.208Z,96.50
2022-12-16T05:51:33.832Z,96.60
2022-12-16T05:54:19.354Z,96.70
2022-12-16T05:57:04.823Z,96.40
2022-12-16T05:59:50.588Z,96.60
2022-12-16T06:02:36.013Z,96.70
2022-12-16T06:05:21.622Z,96.80
2022-12-16T06:08:10.604Z,96.70
2022-12-16T06:10:56.196Z,96.40
2022-12-16T06:13:41.611Z,96.30
2022-12-16T06:16:27.155Z,96.80
2022-12-16T06:19:12.809Z,96.70
2022-12-16T06:21:58.288Z,96.70
2022-12-16T06:24:43.731Z,96.80
2022-12-16T06:27:29.587Z,97.10
2022-12-16T06:30:14.999Z,97.00
2022-12-16T06:33:00.937Z,97.10
2022-12-16T06:35:46.599Z,97.10
2022-12-16T06:38:31.965Z,96.80
2022-12-16T06:41:17.570Z,97.00
2022-12-16T06:44:03.029Z,97.00
2022-12-16T06:46:48.542Z,97.00
2022-12-16T06:49:34.097Z,97.20
2022-12-16T06:52:19.500Z,97.10
2022-12-16T06:55:05.026Z,97.10
2022-12-16T06:57:54.872Z,97.20
2022-12-16T07:00:40.162Z,97.10
2022-12-16T07:03:25.444Z,97.00
2022-12-16T07:06:11.958Z,97.10
2022-12-16T07:08:57.395Z,96.80
2022-12-16T07:11:42.867Z,96.60
2022-12-16T07:14:28.312Z,96.40
2022-12-16T07:17:17.085Z,96.60
2022-12-16T07:20:02.973Z,96.60
2022-12-16T07:22:52.247Z,96.30
2022-12-16T07:25:46.657Z,96.50
2022-12-16T07:28:31.930Z,96.50
2022-12-16T07:31:17.285Z,96.40
2022-12-16T07:34:02.646Z,96.40
2022-12-16T07:36:48.085Z,96.20
2022-12-16T07:39:33.484Z,96.20
2022-12-16T07:42:18.834Z,96.30
2022-12-16T07:45:04.282Z,96.50
2022-12-16T07:47:49.658Z,96.50
2022-12-16T07:50:36.512Z,96.70
2022-12-16T07:53:22.332Z,96.70
2022-12-16T07:56:07.672Z,96.40
2022-12-16T07:58:54.146Z,96.50
2022-12-16T08:01:41.152Z,96.20
2022-12-16T08:04:26.678Z,96.10
2022-12-16T08:07:12.099Z,96.00
2022-12-16T08:09:57.685Z,96.10
2022-12-16T08:12:43.021Z,96.10
2022-12-16T08:15:28.339Z,95.90
2022-12-16T08:18:13.825Z,96.10
2022-12-16T08:20:59.234Z,95.80
2022-12-16T08:23:44.736Z,96.10
2022-12-16T08:26:30.126Z,96.20
2022-12-16T08:29:42.747Z,96.00
2022-12-16T08:32:20.787Z,96.10
2022-12-16T08:35:06.157Z,96.00
2022-12-16T08:37:51.532Z,95.60
2022-12-16T08:40:37.180Z,95.70
2022-12-16T08:43:22.810Z,95.70
2022-12-16T08:46:10.726Z,95.80
2022-12-16T08:48:56.064Z,95.70
2022-12-16T08:51:42.011Z,95.70
2022-12-16T08:54:27.441Z,95.80
2022-12-16T08:57:12.999Z,95.80
2022-12-16T08:59:58.271Z,95.80
2022-12-16T09:02:43.804Z,95.90
2022-12-16T09:05:29.402Z,95.60
2022-12-16T09:08:21.437Z,95.60
2022-12-16T09:11:07.248Z,95.50
2022-12-16T09:13:52.572Z,95.80
2022-12-16T09:16:38.118Z,95.90
2022-12-16T09:19:23.687Z,95.50
2022-12-16T09:22:09.194Z,95.60
2022-12-16T09:24:54.637Z,95.50
2022-12-16T09:27:41.583Z,95.50
2022-12-16T09:30:27.477Z,95.50
2022-12-16T09:33:12.911Z,95.50
2022-12-16T09:35:58.379Z,95.70
2022-12-16T09:38:43.822Z,95.40
2022-12-16T09:41:43.047Z,95.20
2022-12-16T09:44:33.520Z,95.50
2022-12-16T09:47:23.067Z,95.60
2022-12-16T09:50:09.549Z,95.30
2022-12-16T09:53:08.737Z,95.30
2022-12-16T09:55:58.777Z,95.30
2022-12-16T09:58:46.193Z,94.70
2022-12-16T10:01:32.345Z,95.00
2022-12-16T10:04:17.907Z,95.20
2022-12-16T10:07:04.757Z,94.80
2022-12-16T10:09:54.287Z,95.10
2022-12-16T10:12:50.767Z,95.20
2022-12-16T10:15:43.252Z,95.00
2022-12-16T10:18:51.973Z,95.10
2022-12-16T10:21:40.576Z,94.70
2022-12-16T10:24:38.161Z,94.60
2022-12-16T10:27:34.277Z,94.50
2022-12-16T10:30:20.750Z,95.00
2022-12-16T10:33:07.614Z,95.30
2022-12-16T10:36:00.070Z,95.10
2022-12-16T10:38:56.533Z,94.50
2022-12-16T10:41:43.876Z,95.00
2022-12-16T10:44:38.372Z,94.70
2022-12-16T10:47:23.677Z,94.70
2022-12-16T10:50:10.761Z,94.50
2022-12-16T10:53:02.434Z,94.60
2022-12-16T10:56:17.203Z,94.60
2022-12-16T10:59:10.599Z,94.70
2022-12-16T11:01:56.166Z,94.70
2022-12-16T11:04:47.917Z,94.50
2022-12-16T11:07:45.616Z,94.80
2022-12-16T11:10:49.537Z,95.50
2022-12-16T11:13:45.847Z,95.20
2022-12-16T11:16:33.492Z,95.10
2022-12-16T11:19:19.462Z,95.20
2022-12-16T11:22:04.798Z,94.90
2022-12-16T11:24:50.772Z,94.60
2022-12-16T11:27:39.139Z,95.00
2022-12-16T11:30:35.165Z,94.90
2022-12-16T11:33:28.911Z,94.80
2022-12-16T11:36:18.940Z,94.80
2022-12-16T11:39:05.847Z,94.40
2022-12-16T11:42:02.539Z,94.20
2022-12-16T11:44:53.605Z,94.60
2022-12-16T11:47:44.561Z,94.10
2022-12-16T11:50:32.499Z,94.60
2022-12-16T11:53:18.412Z,94.80
2022-12-16T11:56:12.474Z,94.50
2022-12-16T11:59:02.700Z,94.80
2022-12-16T12:02:06.595Z,94.50
2022-12-16T12:04:51.899Z,94.70
2022-12-16T12:07:48.535Z,94.40
2022-12-16T12:10:49.142Z,94.30
2022-12-16T12:13:49.708Z,94.60
2022-12-16T12:17:00.193Z,94.80
2022-12-16T12:19:53.610Z,94.30
2022-12-16T12:22:50.897Z,94.30
2022-12-16T12:25:45.378Z,94.40
2022-12-16T12:28:37.885Z,94.40
2022-12-16T12:31:47.792Z,94.10
2022-12-16T12:34:45.668Z,94.30
2022-12-16T12:37:40.977Z,94.60
2022-12-16T12:40:33.765Z,94.40
2022-12-16T12:43:23.208Z,94.50
2022-12-16T12:46:13.737Z,94.50
2022-12-16T12:49:02.245Z,94.60
2022-12-16T12:52:05.545Z,94.60
2022-12-16T12:55:11.948Z,94.70
2022-12-16T12:57:59.196Z,94.70
2022-12-16T13:00:46.258Z,94.70
2022-12-16T13:03:40.842Z,94.70
2022-12-16T13:06:26.270Z,94.90
2022-12-16T13:09:16.373Z,95.10
2022-12-16T13:12:37.524Z,95.10
2022-12-16T13:15:27.045Z,95.00
2022-12-16T13:18:18.464Z,94.70
2022-12-16T13:21:07.470Z,94.50
2022-12-16T13:23:53.847Z,94.80
2022-12-16T13:26:43.372Z,94.40
2022-12-16T13:29:38.181Z,94.30
2022-12-16T13:32:36.911Z,94.30
2022-12-16T13:35:22.384Z,94.50
2022-12-16T13:38:11.991Z,94.90
2022-12-16T13:41:07.630Z,94.70
2022-12-16T13:44:12.478Z,94.40
2022-12-16T13:46:57.940Z,94.30
2022-12-16T13:49:58.589Z,94.30
2022-12-16T13:52:50.464Z,94.30
2022-12-16T13:55:38.023Z,94.20
2022-12-16T13:58:32.219Z,94.00
2022-12-16T14:01:22.813Z,94.60
2022-12-16T14:04:10.287Z,94.00
2022-12-16T14:06:56.035Z,94.20
2022-12-16T14:09:50.587Z,94.10
2022-12-16T14:13:00.432Z,94.10
2022-12-16T14:16:00.121Z,93.90
2022-12-16T14:19:09.108Z,93.70
2022-12-16T14:22:08.221Z,93.70
2022-12-16T14:24:56.575Z,93.90
2022-12-16T14:27:43.142Z,93.90
2022-12-16T14:30:34.919Z,93.80
2022-12-16T14:33:33.183Z,93.70
2022-12-16T14:36:18.727Z,93.60
2022-12-16T14:39:08.295Z,93.20
2022-12-16T14:41:53.580Z,93.30
2022-12-16T14:44:38.991Z,93.50
2022-12-16T14:47:24.962Z,93.30
2022-12-16T14:50:11.441Z,93.30
2022-12-16T14:52:57.453Z,93.30
2022-12-16T14:55:50.071Z,93.30
2022-12-16T14:58:37.673Z,93.30
2022-12-16T15:01:44.074Z,93.10
2022-12-16T15:04:35.937Z,93.40
2022-12-16T15:07:27.782Z,93.40
2022-12-16T15:10:16.762Z,93.60
2022-12-16T15:13:05.691Z,93.40
2022-12-16T15:15:55.722Z,93.50
2022-12-16T15:18:44.613Z,93.80
2022-12-16T15:21:29.950Z,93.70
2022-12-16T15:24:15.244Z,93.80
2022-12-16T15:27:03.911Z,94.10
2022-12-16T15:29:54.272Z,93.30
2022-12-16T15:32:45.830Z,93.80
2022-12-16T15:35:46.599Z,93.50
2022-12-16T15:38:35.190Z,93.60
2022-12-16T15:41:21.608Z,93.30
2022-12-16T15:44:06.875Z,93.50
2022-12-16T15:46:52.808Z,93.40
2022-12-16T15:49:40.377Z,93.50
2022-12-16T15:52:40.951Z,93.50
2022-12-16T15:55:44.744Z,93.30
2022-12-16T15:58:40.971Z,93.50
2022-12-16T16:01:26.934Z,93.70
2022-12-16T16:04:13.475Z,93.40
2022-12-16T16:07:09.085Z,93.20
2022-12-16T16:09:55.994Z,93.20
2022-12-16T16:12:42.377Z,93.20
2022-12-16T16:15:32.410Z,93.30
2022-12-16T16:18:24.661Z,93.10
2022-12-16T16:21:10.699Z,93.30
2022-12-16T16:23:56.122Z,93.20
2022-12-16T16:26:44.944Z,93.30
2022-12-16T16:29:30.760Z,93.20
2022-12-16T16:32:16.135Z,93.20
2022-12-16T16:35:01.595Z,93.30
2022-12-16T16:37:46.944Z,93.30
2022-12-16T16:40:47.474Z,93.30
2022-12-16T16:43:33.112Z,93.40
2022-12-16T16:46:18.814Z,93.30
2022-12-16T16:49:24.071Z,93.50
2022-12-16T16:52:09.609Z,93.50
2022-12-16T16:54:54.896Z,93.40
2022-12-16T16:57:40.334Z,93.60
2022-12-16T17:00:26.211Z,93.40
2022-12-16T17:03:11.992Z,93.40
2022-12-16T17:05:57.695Z,93.50
2022-12-16T17:08:43.093Z,93.30
2022-12-16T17:11:35.422Z,93.30
2022-12-16T17:14:20.849Z,93.00
2022-12-16T17:17:06.289Z,93.00
2022-12-16T17:19:51.810Z,93.00
2022-12-16T17:22:37.361Z,93.00
2022-12-16T17:25:22.755Z,92.90
2022-12-16T17:28:08.217Z,92.90
2022-12-16T17:30:55.417Z,93.10
2022-12-16T17:33:40.916Z,93.10
2022-12-16T17:36:31.910Z,93.00
2022-12-16T17:39:17.677Z,93.00
2022-12-16T17:42:03.057Z,92.90
2022-12-16T17:44:48.630Z,92.90
2022-12-16T17:47:34.766Z,93.10
2022-12-16T17:50:20.666Z,92.90
2022-12-16T17:53:06.285Z,93.00
2022-12-16T17:55:52.260Z,92.70
2022-12-16T17:58:37.705Z,92.80
2022-12-16T18:01:24.301Z,92.60
2022-12-16T18:04:10.013Z,92.70
2022-12-16T18:06:55.634Z,92.90
2022-12-16T18:09:41.011Z,93.20
2022-12-16T18:12:26.377Z,93.60
2022-12-16T18:15:11.838Z,93.80
2022-12-16T18:17:57.079Z,93.60
2022-12-16T18:20:42.421Z,93.80
2022-12-16T18:23:27.766Z,93.80
2022-12-16T18:26:17.133Z,93.70
2022-12-16T18:29:02.609Z,93.60
2022-12-16T18:31:47.962Z,93.40
2022-12-16T18:34:33.361Z,93.00
2022-12-16T18:37:18.660Z,93.30
2022-12-16T18:40:04.033Z,93.40
2022-12-16T18:42:49.486Z,93.60
2022-12-16T18:45:34.884Z,93.90
2022-12-16T18:48:20.364Z,93.00
2022-12-16T18:51:12.955Z,92.90
2022-12-16T18:53:58.415Z,93.00
2022-12-16T18:56:43.939Z,92.90
2022-12-16T18:59:29.852Z,92.90
2022-12-16T19:02:15.231Z,92.50
2022-12-16T19:05:00.762Z,92.50
2022-12-16T19:07:46.145Z,92.40
2022-12-16T19:10:31.640Z,92.30
2022-12-16T19:13:17.721Z,92.40
2022-12-16T19:16:12.931Z,92.10
2022-12-16T19:18:58.447Z,91.80
2022-12-16T19:21:48.367Z,91.80
2022-12-16T19:24:37.392Z,91.90
2022-12-16T19:27:22.893Z,91.90
2022-12-16T19:30:08.224Z,91.90
2022-12-16T19:32:54.608Z,91.90
2022-12-16T19:35:41.511Z,92.00
2022-12-16T19:38:30.935Z,91.80
2022-12-16T19:41:16.333Z,91.80
2022-12-16T19:44:06.146Z,91.90
2022-12-16T19:46:53.314Z,91.70
2022-12-16T19:49:44.390Z,91.50
2022-12-16T19:52:30.353Z,91.70
2022-12-16T19:55:17.689Z,91.50
2022-12-16T19:58:03.692Z,91.30
2022-12-16T20:00:49.103Z,91.40
2022-12-16T20:03:35.774Z,91.40
2022-12-16T20:06:22.256Z,91.10
2022-12-16T20:09:08.076Z,91.00
2022-12-16T20:11:59.790Z,90.90
2022-12-16T20:14:45.335Z,91.20
2022-12-16T20:17:30.731Z,91.20
2022-12-16T20:20:16.282Z,91.60
2022-12-16T20:23:01.716Z,91.60
2022-12-16T20:25:47.246Z,91.60
2022-12-16T20:28:32.739Z,91.60
2022-12-16T20:31:21.641Z,91.50
2022-12-16T20:34:13.552Z,91.50
2022-12-16T20:36:59.049Z,91.60
2022-12-16T20:39:49.508Z,91.70
2022-12-16T20:42:39.047Z,91.60
2022-12-16T20:45:24.505Z,91.60
2022-12-16T20:48:11.392Z,91.30
2022-12-16T20:50:56.996Z,91.50
2022-12-16T20:53:42.725Z,91.60
2022-12-16T20:56:28.852Z,91.80
2022-12-16T20:59:14.287Z,91.70
2022-12-16T21:02:22.102Z,91.80
2022-12-16T21:05:05.228Z,91.40
2022-12-16T21:07:50.521Z,91.50
2022-12-16T21:10:37.160Z,91.40
2022-12-16T21:13:30.148Z,91.80
2022-12-16T21:16:16.681Z,91.80
2022-12-16T21:19:02.371Z,91.50
2022-12-16T21:21:47.760Z,91.50
2022-12-16T21:24:33.211Z,91.30
2022-12-16T21:27:18.603Z,91.30
2022-12-16T21:30:04.116Z,91.60
2022-12-16T21:32:49.576Z,91.70
2022-12-16T21:35:35.637Z,91.90
2022-12-16T21:38:21.772Z,91.90
2022-12-16T21:41:10.746Z,91.90
2022-12-16T21:43:56.245Z,91.90
2022-12-16T21:46:42.050Z,92.00
2022-12-16T21:49:27.360Z,92.00
2022-12-16T21:52:12.893Z,92.00
2022-12-16T21:54:58.363Z,92.00
2022-12-16T21:57:43.772Z,91.80
2022-12-16T22:00:29.830Z,91.70
2022-12-16T22:03:15.256Z,91.60
2022-12-16T22:06:00.712Z,91.80
2022-12-16T22:08:46.284Z,91.60
2022-12-16T22:11:32.323Z,91.70
2022-12-16T22:14:17.895Z,91.90
2022-12-16T22:17:04.904Z,92.10
2022-12-16T22:19:53.919Z,92.10
2022-12-16T22:22:42.016Z,92.10
2022-12-16T22:25:27.599Z,92.10
2022-12-16T22:28:12.815Z,92.20
2022-12-16T22:30:58.390Z,92.00
2022-12-16T22:33:43.702Z,92.00
2022-12-16T22:36:31.126Z,91.90
2022-12-16T22:39:16.565Z,91.70
2022-12-16T22:42:02.045Z,91.50
2022-12-16T22:44:47.595Z,91.60
2022-12-16T22:47:33.156Z,91.70
2022-12-16T22:50:18.581Z,91.60
2022-12-16T22:53:04.133Z,91.60
2022-12-16T22:55:49.461Z,91.50
2022-12-16T22:58:34.944Z,92.00
2022-12-16T23:01:20.390Z,91.40
2022-12-16T23:04:06.036Z,91.40
2022-12-16T23:06:51.910Z,91.40
2022-12-16T23:09:37.894Z,91.40
2022-12-16T23:12:23.884Z,91.50
2022-12-16T23:15:12.990Z,91.50
2022-12-16T23:17:58.334Z,91.40
2022-12-16T23:20:43.779Z,91.30
2022-12-16T23:23:29.170Z,91.10
2022-12-16T23:26:15.652Z,91.30
2022-12-16T23:29:01.132Z,91.50
2022-12-16T23:31:46.594Z,91.30
2022-12-16T23:34:31.887Z,91.20
2022-12-16T23:37:17.365Z,91.10
2022-12-16T23:40:02.743Z,91.30
2022-12-16T23:42:48.289Z,91.20
2022-12-16T23:45:33.601Z,91.10
2022-12-16T23:48:26.184Z,90.90
2022-12-16T23:51:12.065Z,91.20
2022-12-16T23:53:57.956Z,90.80
2022-12-16T23:56:43.868Z,90.80
2022-12-16T23:59:29.340Z,90.60
